ウィニペグ の空港の天気 - METARとTAF

ウィニペグ国際空港 ( CYWG / YWG ) - カナダ マニトバ州ウィニペグ
飛行場実況気象(Metar)
観測時間12/15 06:00 CST (12/15 12:00 UTC)
風向・風速南 10m/s 瞬間風速12m/s
視程10km以上
天気現象
少しの雲 雲底高度 7620m
気温-4℃
湿度86%
気圧1010.4hPa
METARCYWG 151200Z 17019G24KT 15SM FEW250 M04/M06 A2979 RMK CI2 SLP104
過去の天気等 Google飛行場航空写真 Wunderground天気予報

過去48時間のMETAR

飛行場予報(TAF)
発表時間: 12/15 05:38 CST (12/15 11:38 UTC)
予報対象時間: 15日6時 CST ~ 16日6時 CST
風向・風速南 8m/s
視程10km以上
少しの雲 雲底高度 6710m
15日12時 CST から
風向・風速南 9m/s 瞬間風速 14m/s
視程10km以上
全天の8割程度の雲 雲底高度 7320m
15日18時 CST ~ 15日20時 CST に徐々に
風向・風速西南西 9m/s 瞬間風速 14m/s
15日22時 CST から
風向・風速西 10m/s 瞬間風速 15m/s
視程10km以上
なし
TAF CYWG 151138Z 1512/1612 18015KT P6SM FEW220
FM151800 18018G28KT P6SM BKN240
BECMG 1600/1602 24018G28KT
FM160400 27020G30KT P6SM SKC RMK NXT FCST BY 151800Z